Time;durP1;ratioP1;P1;durP2;ratioP2;P2;SDS_P1;SDS_P2;PMS_P1;PMS_P2;Temp;Humidity;BMP_temperature;BMP_pressure;BME280_temperature;BME280_humidity;BME280_pressure;Samples;Min_cycle;Max_cycle;Signal;HPM_P1;HPM_P2
2022/01/18 00:00:47;;;;;;;;;;;;;;;;;;5074942;28;20390;-62
2022/01/18 00:03:13;;;;;;;;;;;;;;;;;;5068648;28;19979;-62
2022/01/18 00:05:39;;;;;;;;;;;;;;;;;;5078546;28;20436;-63
2022/01/18 00:08:05;;;;;;;;;;;;;;;;;;5083270;28;20019;-63
2022/01/18 00:10:32;;;;;;;;;;;;;;;;;;5086345;28;20358;-62
2022/01/18 00:15:37;;;;;;;;;;;;;;;;;;5079508;28;19931;-62
2022/01/18 00:20:41;;;;;;;;;;;;;;;;;;5068535;28;19932;-62
2022/01/18 00:23:08;;;;;;;;;;;;;;;;;;5068151;28;19924;-66
2022/01/18 00:25:37;;;;;;;;;;;;;;;;;;5068698;28;19925;-62
2022/01/18 00:28:05;;;;;;;;;;;;;;;;;;5075934;28;19994;-62
2022/01/18 00:33:16;;;;;;;;;;;;;;;;;;5068330;28;19924;-63
2022/01/18 00:35:45;;;;;;;;;;;;;;;;;;5084962;28;19924;-62
2022/01/18 00:38:30;;;;;;;;;;;;;;;;;;5078294;28;19939;-62
2022/01/18 00:40:56;;;;;;;;;;;;;;;;;;5085340;28;19988;-63
2022/01/18 00:43:22;;;;;;;;;;;;;;;;;;5072305;28;20329;-63
2022/01/18 00:45:48;;;;;;;;;;;;;;;;;;5069707;28;19989;-63
2022/01/18 00:48:14;;;;;;;;;;;;;;;;;;5085254;28;19934;-62
2022/01/18 00:50:40;;;;;;;;;;;;;;;;;;5085306;28;20396;-63
2022/01/18 00:53:11;;;;;;;;;;;;;;;;;;5084195;28;19954;-62
2022/01/18 00:55:48;;;;;;;;;;;;;;;;;;5084765;28;19944;-65
2022/01/18 00:58:14;;;;;;;;;;;;;;;;;;5065255;28;19924;-62
2022/01/18 01:00:40;;;;;;;;;;;;;;;;;;5066943;28;19978;-63
2022/01/18 01:03:06;;;;;;;;;;;;;;;;;;5077104;28;19980;-62
2022/01/18 01:05:32;;;;;;;;;;;;;;;;;;5085608;28;19931;-62
2022/01/18 01:07:58;;;;;;;;;;;;;;;;;;5084835;28;19924;-62
2022/01/18 01:10:24;;;;;;;;;;;;;;;;;;5077838;28;19928;-62
2022/01/18 01:12:50;;;;;;;;;;;;;;;;;;5081283;28;21718;-63
2022/01/18 01:15:18;;;;;;;;;;;;;;;;;;5075438;28;20389;-63
2022/01/18 01:17:52;;;;;;;;;;;;;;;;;;5067067;28;19938;-63
2022/01/18 01:41:51;;;;;;;;;;;;;;;;;;5083065;28;19924;-63
2022/01/18 01:44:23;;;;;;;;;;;;;;;;;;5082251;28;20302;-62
2022/01/18 01:46:49;;;;;;;;;;;;;;;;;;5084194;28;19977;-63
2022/01/18 01:49:15;;;;;;;;;;;;;;;;;;5066468;28;20231;-63
2022/01/18 01:51:41;;;;;;;;;;;;;;;;;;5066064;28;19921;-63
2022/01/18 01:54:07;;;;;;;;;;;;;;;;;;5068426;28;20439;-63
2022/01/18 01:56:33;;;;;;;;;;;;;;;;;;5073083;28;19916;-64
2022/01/18 01:58:59;;;;;;;;;;;;;;;;;;5072074;28;19924;-63
2022/01/18 02:01:25;;;;;;;;;;;;;;;;;;5073017;28;19924;-62
2022/01/18 02:03:51;;;;;;;;;;;;;;;;;;5079720;28;19924;-63
2022/01/18 02:06:17;;;;;;;;;;;;;;;;;;5084428;28;19932;-63
2022/01/18 02:08:43;;;;;;;;;;;;;;;;;;5067485;28;19926;-62
2022/01/18 02:11:09;;;;;;;;;;;;;;;;;;5066408;28;20409;-62
2022/01/18 02:13:35;;;;;;;;;;;;;;;;;;5067265;28;19925;-63
2022/01/18 02:21:46;;;;;;;;;;;;;;;;;;5066846;28;19964;-63
2022/01/18 02:24:05;;;;;;;;;;;;;;;;;;5066473;28;19936;-63
2022/01/18 02:26:31;;;;;;;;;;;;;;;;;;5075029;28;19925;-63
2022/01/18 02:28:57;;;;;;;;;;;;;;;;;;5065802;28;20389;-62
2022/01/18 02:31:23;;;;;;;;;;;;;;;;;;5074167;28;19924;-62
2022/01/18 02:33:49;;;;;;;;;;;;;;;;;;5068535;28;19994;-63
2022/01/18 02:36:15;;;;;;;;;;;;;;;;;;5066251;28;20361;-63
2022/01/18 02:38:41;;;;;;;;;;;;;;;;;;5066410;28;20007;-63
2022/01/18 02:41:07;;;;;;;;;;;;;;;;;;5070210;28;19958;-63
2022/01/18 02:43:46;;;;;;;;;;;;;;;;;;5069891;28;19956;-63
2022/01/18 02:46:12;;;;;;;;;;;;;;;;;;5070085;28;20348;-63
2022/01/18 02:48:38;;;;;;;;;;;;;;;;;;5082981;28;20449;-64
2022/01/18 02:51:04;;;;;;;;;;;;;;;;;;5083714;28;19924;-63
2022/01/18 02:53:30;;;;;;;;;;;;;;;;;;5069971;28;19947;-63
2022/01/18 02:55:56;;;;;;;;;;;;;;;;;;5069959;28;20301;-63
2022/01/18 06:26:38;;;;;;;;;;;;;;;;;;5010501;28;19936;-66
2022/01/18 06:29:04;;;;;;;;;;;;;;;;;;5006734;28;19933;-67
2022/01/18 06:31:30;;;;;;;;;;;;;;;;;;4317521;22;21255;-67
2022/01/18 06:33:56;;;;;;;;;;;;;;;;;;5080331;28;20025;-67
2022/01/18 06:36:22;;;;;;;;;;;;;;;;;;5084766;28;19932;-67
2022/01/18 06:38:48;;;;;;;;;;;;;;;;;;5087054;28;20330;-67
2022/01/18 06:41:14;;;;;;;;;;;;;;;;;;5084709;28;19932;-67
2022/01/18 06:43:40;;;;;;;;;;;;;;;;;;5081978;28;20041;-67
2022/01/18 06:46:06;;;;;;;;;;;;;;;;;;5083471;28;20407;-67
2022/01/18 06:48:32;;;;;;;;;;;;;;;;;;5083775;28;20032;-67
2022/01/18 07:00:08;;;;;;;;;;;;;;;;;;5086116;28;19954;-68
2022/01/18 07:02:36;;;;;;;;;;;;;;;;;;5084925;28;22428;-68
2022/01/18 07:05:02;;;;;;;;;;;;;;;;;;5088379;28;19931;-68
2022/01/18 07:07:28;;;;;;;;;;;;;;;;;;5086447;28;20015;-70
2022/01/18 07:09:54;;;;;;;;;;;;;;;;;;5085307;28;19924;-67
2022/01/18 07:12:20;;;;;;;;;;;;;;;;;;5081604;28;19931;-68
2022/01/18 07:14:46;;;;;;;;;;;;;;;;;;5086140;28;21370;-67
2022/01/18 07:17:12;;;;;;;;;;;;;;;;;;5085124;28;19973;-67
2022/01/18 07:19:38;;;;;;;;;;;;;;;;;;5086551;28;19924;-68
2022/01/18 07:22:04;;;;;;;;;;;;;;;;;;5085897;28;19924;-68
2022/01/18 07:24:38;;;;;;;;;;;;;;;;;;5086372;28;20359;-68
2022/01/18 07:27:04;;;;;;;;;;;;;;;;;;5088455;28;20011;-68
2022/01/18 07:29:30;;;;;;;;;;;;;;;;;;5089373;28;20009;-68
2022/01/18 07:31:56;;;;;;;;;;;;;;;;;;5084666;28;20377;-68
2022/01/18 07:34:22;;;;;;;;;;;;;;;;;;5090147;28;19931;-68
2022/01/18 07:36:48;;;;;;;;;;;;;;;;;;5090242;28;20014;-68
2022/01/18 07:39:14;;;;;;;;;;;;;;;;;;5089468;28;19978;-68
2022/01/18 07:41:40;;;;;;;;;;;;;;;;;;5089446;28;19971;-68
2022/01/18 07:44:06;;;;;;;;;;;;;;;;;;5089774;28;19924;-68
2022/01/18 07:46:32;;;;;;;;;;;;;;;;;;5087643;28;19974;-68
2022/01/18 07:48:58;;;;;;;;;;;;;;;;;;5089324;28;20389;-68
2022/01/18 07:51:24;;;;;;;;;;;;;;;;;;5089284;28;19924;-68
2022/01/18 07:53:50;;;;;;;;;;;;;;;;;;5089835;28;20030;-68
2022/01/18 07:56:16;;;;;;;;;;;;;;;;;;5089297;28;19931;-68
2022/01/18 07:58:42;;;;;;;;;;;;;;;;;;5088830;28;19928;-68
2022/01/18 08:01:08;;;;;;;;;;;;;;;;;;5088292;28;20019;-68
2022/01/18 08:03:34;;;;;;;;;;;;;;;;;;5087935;28;20686;-68
2022/01/18 08:06:01;;;;;;;;;;;;;;;;;;5089019;28;19939;-68
2022/01/18 08:08:27;;;;;;;;;;;;;;;;;;5088742;28;19931;-68
2022/01/18 08:10:53;;;;;;;;;;;;;;;;;;5089388;28;20296;-68
2022/01/18 08:13:24;;;;;;;;;;;;;;;;;;5089114;28;19924;-68
2022/01/18 08:15:58;;;;;;;;;;;;;;;;;;5088833;28;19928;-68
2022/01/18 08:18:24;;;;;;;;;;;;;;;;;;5103850;28;20018;-68
2022/01/18 08:20:50;;;;;;;;;;;;;;;;;;5087416;28;20003;-68
2022/01/18 08:23:16;;;;;;;;;;;;;;;;;;5088776;28;20415;-68
2022/01/18 08:25:44;;;;;;;;;;;;;;;;;;5088786;28;19950;-68
2022/01/18 08:28:10;;;;;;;;;;;;;;;;;;5088976;28;20041;-68
2022/01/18 08:30:36;;;;;;;;;;;;;;;;;;5088706;28;19934;-68
2022/01/18 08:33:02;;;;;;;;;;;;;;;;;;5086987;28;19924;-68
2022/01/18 08:35:28;;;;;;;;;;;;;;;;;;5088558;28;20396;-68
2022/01/18 08:37:54;;;;;;;;;;;;;;;;;;5086965;28;20375;-68
2022/01/18 08:40:20;;;;;;;;;;;;;;;;;;5088105;28;19946;-68
2022/01/18 08:42:46;;;;;;;;;;;;;;;;;;5088159;28;19924;-68
2022/01/18 08:45:12;;;;;;;;;;;;;;;;;;5088506;28;20061;-68
2022/01/18 08:47:38;;;;;;;;;;;;;;;;;;5087554;28;19930;-67
2022/01/18 08:50:04;;;;;;;;;;;;;;;;;;5087137;28;20015;-67
2022/01/18 08:52:30;;;;;;;;;;;;;;;;;;5088379;28;19962;-68
2022/01/18 08:54:56;;;;;;;;;;;;;;;;;;5088217;28;20351;-68
2022/01/18 08:57:22;;;;;;;;;;;;;;;;;;5087177;28;19924;-68
2022/01/18 08:59:49;;;;;;;;;;;;;;;;;;5088185;28;20409;-68
2022/01/18 09:02:16;;;;;;;;;;;;;;;;;;5083663;28;19924;-68
2022/01/18 09:04:42;;;;;;;;;;;;;;;;;;5088019;28;20274;-67
2022/01/18 09:07:09;;;;;;;;;;;;;;;;;;5087842;28;20388;-68
2022/01/18 09:09:35;;;;;;;;;;;;;;;;;;5087768;28;19924;-68
2022/01/18 09:12:01;;;;;;;;;;;;;;;;;;5087676;28;19931;-68
2022/01/18 09:14:27;;;;;;;;;;;;;;;;;;5088157;28;19932;-68
2022/01/18 09:16:53;;;;;;;;;;;;;;;;;;5086848;28;19920;-68
2022/01/18 09:19:19;;;;;;;;;;;;;;;;;;5087414;28;19928;-68
2022/01/18 09:21:48;;;;;;;;;;;;;;;;;;5087565;28;20671;-68
2022/01/18 09:24:13;;;;;;;;;;;;;;;;;;5087453;28;20419;-67
2022/01/18 09:26:39;;;;;;;;;;;;;;;;;;5087717;28;19970;-67
2022/01/18 09:29:09;;;;;;;;;;;;;;;;;;5087421;28;19924;-68
2022/01/18 09:31:35;;;;;;;;;;;;;;;;;;5086188;28;19946;-68
2022/01/18 09:34:01;;;;;;;;;;;;;;;;;;5087354;28;19950;-68
2022/01/18 09:36:27;;;;;;;;;;;;;;;;;;5087853;28;19924;-67
2022/01/18 09:38:53;;;;;;;;;;;;;;;;;;5087069;28;20297;-68
2022/01/18 09:41:21;;;;;;;;;;;;;;;;;;5086240;28;19924;-68
2022/01/18 09:43:47;;;;;;;;;;;;;;;;;;5087605;28;20035;-68
2022/01/18 09:46:14;;;;;;;;;;;;;;;;;;5086112;28;20018;-67
2022/01/18 09:48:40;;;;;;;;;;;;;;;;;;5086533;28;20377;-68
2022/01/18 09:51:06;;;;;;;;;;;;;;;;;;5087067;28;19924;-67
2022/01/18 09:53:32;;;;;;;;;;;;;;;;;;5086927;28;19927;-68
2022/01/18 09:55:57;;;;;;;;;;;;;;;;;;5085950;28;20388;-68
2022/01/18 09:58:23;;;;;;;;;;;;;;;;;;5087101;28;19966;-68
2022/01/18 10:00:52;;;;;;;;;;;;;;;;;;5085985;28;20425;-68
2022/01/18 10:03:18;;;;;;;;;;;;;;;;;;5085610;28;19924;-68
2022/01/18 10:05:44;;;;;;;;;;;;;;;;;;5086816;28;19927;-67
2022/01/18 10:08:12;;;;;;;;;;;;;;;;;;5085534;28;19935;-68
2022/01/18 10:10:38;;;;;;;;;;;;;;;;;;5086856;28;20373;-68
2022/01/18 10:13:04;;;;;;;;;;;;;;;;;;5086589;28;19960;-68
2022/01/18 10:15:30;;;;;;;;;;;;;;;;;;5087409;28;19925;-68
2022/01/18 10:17:56;;;;;;;;;;;;;;;;;;5086060;28;19920;-68
2022/01/18 10:20:23;;;;;;;;;;;;;;;;;;5086715;28;19928;-68
2022/01/18 10:22:49;;;;;;;;;;;;;;;;;;5085142;28;19931;-68
2022/01/18 10:25:15;;;;;;;;;;;;;;;;;;5086811;28;19949;-68
2022/01/18 10:27:41;;;;;;;;;;;;;;;;;;5087253;28;20304;-68
2022/01/18 10:30:09;;;;;;;;;;;;;;;;;;5086767;28;19924;-68
2022/01/18 10:32:40;;;;;;;;;;;;;;;;;;5085178;28;19969;-67
2022/01/18 10:35:08;;;;;;;;;;;;;;;;;;5085542;28;19924;-68
2022/01/18 10:37:34;;;;;;;;;;;;;;;;;;5086624;28;19928;-68
2022/01/18 10:40:00;;;;;;;;;;;;;;;;;;5086919;28;19924;-68
2022/01/18 10:42:30;;;;;;;;;;;;;;;;;;5086751;28;19950;-67
2022/01/18 10:44:56;;;;;;;;;;;;;;;;;;5086608;28;19931;-68
2022/01/18 10:47:22;;;;;;;;;;;;;;;;;;5085713;28;20301;-68
2022/01/18 10:49:48;;;;;;;;;;;;;;;;;;5085033;28;19928;-68
2022/01/18 10:52:15;;;;;;;;;;;;;;;;;;5086541;28;20308;-68
2022/01/18 10:54:41;;;;;;;;;;;;;;;;;;5086706;28;20026;-68
2022/01/18 10:57:07;;;;;;;;;;;;;;;;;;5086437;28;19932;-67
2022/01/18 10:59:33;;;;;;;;;;;;;;;;;;5086681;28;20018;-67
2022/01/18 11:01:59;;;;;;;;;;;;;;;;;;5089408;28;19998;-67
2022/01/18 11:04:25;;;;;;;;;;;;;;;;;;5089016;28;20660;-67
2022/01/18 11:06:51;;;;;;;;;;;;;;;;;;5090459;28;19988;-68
2022/01/18 11:09:18;;;;;;;;;;;;;;;;;;5088828;28;20305;-68
2022/01/18 11:11:44;;;;;;;;;;;;;;;;;;5090276;28;19966;-67
2022/01/18 11:14:11;;;;;;;;;;;;;;;;;;5089831;28;19924;-67
2022/01/18 11:16:41;;;;;;;;;;;;;;;;;;5089024;28;19931;-67
2022/01/18 11:19:07;;;;;;;;;;;;;;;;;;5090285;28;19924;-67
2022/01/18 11:21:33;;;;;;;;;;;;;;;;;;5090263;28;19935;-68
2022/01/18 11:24:00;;;;;;;;;;;;;;;;;;5090020;28;19924;-67
2022/01/18 11:26:26;;;;;;;;;;;;;;;;;;5089634;28;19935;-68
2022/01/18 11:28:56;;;;;;;;;;;;;;;;;;5089698;28;19940;-68
2022/01/18 11:31:22;;;;;;;;;;;;;;;;;;5088566;28;19935;-67
2022/01/18 11:33:48;;;;;;;;;;;;;;;;;;5089577;28;19924;-68
2022/01/18 11:36:14;;;;;;;;;;;;;;;;;;5089326;28;19993;-67
2022/01/18 11:38:40;;;;;;;;;;;;;;;;;;5089480;28;19963;-68
2022/01/18 11:41:06;;;;;;;;;;;;;;;;;;5090077;28;19928;-68
2022/01/18 11:43:32;;;;;;;;;;;;;;;;;;5090711;28;19969;-68
2022/01/18 11:45:58;;;;;;;;;;;;;;;;;;5087198;28;20381;-67
2022/01/18 11:48:25;;;;;;;;;;;;;;;;;;5089427;28;19972;-67
2022/01/18 11:50:51;;;;;;;;;;;;;;;;;;5092119;28;19982;-67
2022/01/18 11:53:24;;;;;;;;;;;;;;;;;;5089107;28;20698;-68
2022/01/18 11:55:50;;;;;;;;;;;;;;;;;;5086936;28;19939;-67
2022/01/18 11:58:16;;;;;;;;;;;;;;;;;;5088843;28;19924;-68
2022/01/18 12:00:42;;;;;;;;;;;;;;;;;;5087924;28;20317;-68
2022/01/18 12:03:08;;;;;;;;;;;;;;;;;;5086378;28;19924;-68
2022/01/18 12:05:35;;;;;;;;;;;;;;;;;;5091787;28;19973;-68
2022/01/18 12:08:01;;;;;;;;;;;;;;;;;;5082788;28;20047;-68
2022/01/18 12:10:27;;;;;;;;;;;;;;;;;;5085837;28;19996;-68
2022/01/18 12:12:53;;;;;;;;;;;;;;;;;;5083202;28;20614;-68
2022/01/18 12:15:19;;;;;;;;;;;;;;;;;;5081182;28;19924;-68
2022/01/18 12:17:45;;;;;;;;;;;;;;;;;;5084825;28;19940;-68
2022/01/18 12:20:11;;;;;;;;;;;;;;;;;;5084945;28;19924;-68
2022/01/18 12:22:37;;;;;;;;;;;;;;;;;;5086096;28;19970;-68
2022/01/18 12:25:03;;;;;;;;;;;;;;;;;;5083398;28;19961;-68
2022/01/18 12:27:31;;;;;;;;;;;;;;;;;;5080333;28;19928;-68
2022/01/18 12:30:01;;;;;;;;;;;;;;;;;;5087684;28;19992;-68
2022/01/18 12:32:40;;;;;;;;;;;;;;;;;;5086913;28;19925;-68
2022/01/18 12:35:06;;;;;;;;;;;;;;;;;;5086817;28;20431;-69
2022/01/18 12:37:32;;;;;;;;;;;;;;;;;;5087161;28;19968;-68
2022/01/18 12:40:05;;;;;;;;;;;;;;;;;;5087403;28;19925;-68
2022/01/18 12:44:57;;;;;;;;;;;;;;;;;;5086460;28;19929;-69
2022/01/18 12:47:23;;;;;;;;;;;;;;;;;;5087017;28;19916;-67
2022/01/18 12:49:49;;;;;;;;;;;;;;;;;;5086666;28;19928;-68
2022/01/18 12:52:14;;;;;;;;;;;;;;;;;;5087639;28;19916;-69
2022/01/18 12:54:42;;;;;;;;;;;;;;;;;;5086954;28;19924;-69
2022/01/18 12:57:08;;;;;;;;;;;;;;;;;;5088108;28;20028;-68
2022/01/18 12:59:34;;;;;;;;;;;;;;;;;;5087209;28;20388;-68
2022/01/18 13:02:00;;;;;;;;;;;;;;;;;;5086625;28;20032;-67
2022/01/18 13:04:28;;;;;;;;;;;;;;;;;;5087169;28;19938;-68
2022/01/18 13:06:56;;;;;;;;;;;;;;;;;;5087045;28;19925;-69
2022/01/18 13:09:21;;;;;;;;;;;;;;;;;;5085963;28;19928;-68
2022/01/18 13:11:48;;;;;;;;;;;;;;;;;;5087011;28;19969;-68
2022/01/18 13:14:15;;;;;;;;;;;;;;;;;;5086499;28;19932;-69
2022/01/18 13:25:03;;;;;;;;;;;;;;;;;;5087198;28;19924;-66
2022/01/18 13:27:33;;;;;;;;;;;;;;;;;;5086896;28;20401;-66
2022/01/18 13:30:01;;;;;;;;;;;;;;;;;;5086982;28;20005;-66
2022/01/18 13:32:32;;;;;;;;;;;;;;;;;;5085241;28;20355;-65
2022/01/18 13:34:59;;;;;;;;;;;;;;;;;;5083366;28;19924;-65
2022/01/18 13:37:27;;;;;;;;;;;;;;;;;;5086491;28;19924;-65
2022/01/18 13:39:53;;;;;;;;;;;;;;;;;;5086472;28;19931;-66
2022/01/18 13:42:19;;;;;;;;;;;;;;;;;;5086123;28;19977;-66
2022/01/18 13:44:45;;;;;;;;;;;;;;;;;;5086070;28;19924;-65
2022/01/18 13:47:11;;;;;;;;;;;;;;;;;;5086176;28;19977;-65
2022/01/18 13:49:37;;;;;;;;;;;;;;;;;;5086602;28;20395;-65
2022/01/18 13:52:03;;;;;;;;;;;;;;;;;;5086436;28;19935;-65
2022/01/18 13:54:29;;;;;;;;;;;;;;;;;;5086122;28;19931;-68
2022/01/18 13:56:55;;;;;;;;;;;;;;;;;;5085015;28;19968;-66
2022/01/18 13:59:21;;;;;;;;;;;;;;;;;;5086477;28;20288;-66
2022/01/18 14:01:47;;;;;;;;;;;;;;;;;;5085629;28;20433;-66
2022/01/18 14:04:13;;;;;;;;;;;;;;;;;;5086527;28;19924;-67
2022/01/18 14:06:39;;;;;;;;;;;;;;;;;;5086577;28;20388;-65
2022/01/18 14:09:07;;;;;;;;;;;;;;;;;;5086521;28;20284;-66
2022/01/18 14:11:35;;;;;;;;;;;;;;;;;;5086281;28;19928;-66
2022/01/18 14:14:02;;;;;;;;;;;;;;;;;;5086334;28;20221;-65
2022/01/18 14:16:28;;;;;;;;;;;;;;;;;;5085820;28;19939;-66
2022/01/18 14:18:54;;;;;;;;;;;;;;;;;;5086026;28;19955;-65
2022/01/18 14:21:20;;;;;;;;;;;;;;;;;;5086230;28;19924;-66
2022/01/18 14:23:46;;;;;;;;;;;;;;;;;;5085788;28;19931;-66
2022/01/18 14:26:12;;;;;;;;;;;;;;;;;;5086784;28;19931;-66
2022/01/18 14:28:38;;;;;;;;;;;;;;;;;;5085735;28;20327;-66
2022/01/18 14:31:04;;;;;;;;;;;;;;;;;;5085491;28;19971;-66
2022/01/18 14:33:30;;;;;;;;;;;;;;;;;;5085383;28;20270;-66
2022/01/18 14:35:56;;;;;;;;;;;;;;;;;;5088896;28;19928;-65
2022/01/18 14:38:22;;;;;;;;;;;;;;;;;;5089876;28;19930;-66
2022/01/18 14:40:50;;;;;;;;;;;;;;;;;;5089629;28;19930;-66
2022/01/18 14:43:28;;;;;;;;;;;;;;;;;;5090112;28;20381;-66
2022/01/18 14:46:01;;;;;;;;;;;;;;;;;;5088494;28;19978;-65
2022/01/18 14:48:27;;;;;;;;;;;;;;;;;;5090152;28;19924;-65
2022/01/18 14:50:53;;;;;;;;;;;;;;;;;;5089100;28;19930;-67
2022/01/18 14:53:19;;;;;;;;;;;;;;;;;;5089763;28;19924;-66
2022/01/18 14:55:45;;;;;;;;;;;;;;;;;;5086875;28;19924;-67
2022/01/18 14:58:12;;;;;;;;;;;;;;;;;;5083933;28;19931;-66
2022/01/18 15:00:38;;;;;;;;;;;;;;;;;;5085414;28;19931;-67
2022/01/18 15:03:04;;;;;;;;;;;;;;;;;;5087481;28;20332;-67
2022/01/18 15:05:30;;;;;;;;;;;;;;;;;;5080877;28;20380;-67
2022/01/18 15:07:56;;;;;;;;;;;;;;;;;;5083186;28;20991;-67
2022/01/18 15:10:22;;;;;;;;;;;;;;;;;;5082959;28;20433;-66
2022/01/18 15:12:48;;;;;;;;;;;;;;;;;;5081883;28;20921;-67
2022/01/18 15:15:14;;;;;;;;;;;;;;;;;;5083182;28;19928;-67
2022/01/18 15:17:41;;;;;;;;;;;;;;;;;;5079101;28;20376;-67
2022/01/18 15:20:07;;;;;;;;;;;;;;;;;;5080458;28;19923;-66
2022/01/18 15:22:33;;;;;;;;;;;;;;;;;;5081280;28;19954;-67
2022/01/18 15:24:59;;;;;;;;;;;;;;;;;;5085270;28;19959;-67
2022/01/18 15:27:25;;;;;;;;;;;;;;;;;;5076739;28;19924;-67
2022/01/18 15:29:51;;;;;;;;;;;;;;;;;;5083213;28;19935;-67
2022/01/18 15:32:17;;;;;;;;;;;;;;;;;;5078900;28;19925;-67
2022/01/18 15:34:44;;;;;;;;;;;;;;;;;;5079014;28;19932;-67
2022/01/18 15:37:10;;;;;;;;;;;;;;;;;;5080350;28;19917;-67
2022/01/18 15:39:36;;;;;;;;;;;;;;;;;;5085593;28;19978;-67
2022/01/18 15:42:02;;;;;;;;;;;;;;;;;;5076463;28;19978;-66
2022/01/18 15:44:28;;;;;;;;;;;;;;;;;;5082302;28;20019;-67
2022/01/18 15:46:53;;;;;;;;;;;;;;;;;;5081354;28;20083;-67
2022/01/18 15:49:21;;;;;;;;;;;;;;;;;;5078649;28;20686;-67
2022/01/18 15:51:47;;;;;;;;;;;;;;;;;;5078588;28;19930;-67
2022/01/18 15:54:13;;;;;;;;;;;;;;;;;;5083657;28;19924;-67
2022/01/18 15:56:39;;;;;;;;;;;;;;;;;;5083868;28;19931;-66
2022/01/18 15:59:05;;;;;;;;;;;;;;;;;;5079782;28;19931;-66
2022/01/18 16:01:31;;;;;;;;;;;;;;;;;;5078417;28;19924;-67
2022/01/18 16:03:57;;;;;;;;;;;;;;;;;;5083928;28;19970;-66
2022/01/18 16:06:23;;;;;;;;;;;;;;;;;;5084355;28;20408;-66
2022/01/18 16:08:49;;;;;;;;;;;;;;;;;;5082876;28;19928;-67
2022/01/18 16:11:17;;;;;;;;;;;;;;;;;;5082117;28;20387;-66
2022/01/18 16:13:43;;;;;;;;;;;;;;;;;;5083040;28;20144;-66
2022/01/18 16:16:10;;;;;;;;;;;;;;;;;;5084594;28;19955;-67
2022/01/18 16:18:36;;;;;;;;;;;;;;;;;;5083723;28;20460;-67
2022/01/18 16:21:02;;;;;;;;;;;;;;;;;;5085292;28;19953;-65
2022/01/18 16:23:28;;;;;;;;;;;;;;;;;;5085671;28;19943;-66
2022/01/18 16:25:55;;;;;;;;;;;;;;;;;;5085829;28;19927;-66
2022/01/18 16:28:23;;;;;;;;;;;;;;;;;;5085926;28;20039;-66
2022/01/18 16:30:50;;;;;;;;;;;;;;;;;;5084298;28;19928;-66
2022/01/18 16:33:16;;;;;;;;;;;;;;;;;;5082568;28;20007;-65
2022/01/18 16:35:42;;;;;;;;;;;;;;;;;;5084516;28;20022;-66
2022/01/18 16:38:08;;;;;;;;;;;;;;;;;;5084985;28;19916;-65
2022/01/18 16:40:34;;;;;;;;;;;;;;;;;;5083449;28;19932;-66
2022/01/18 16:43:00;;;;;;;;;;;;;;;;;;5083662;28;19936;-66
2022/01/18 16:45:26;;;;;;;;;;;;;;;;;;5084626;28;19932;-66
2022/01/18 16:47:52;;;;;;;;;;;;;;;;;;5084237;28;19939;-66
2022/01/18 16:50:18;;;;;;;;;;;;;;;;;;5084997;28;20399;-67
2022/01/18 16:52:44;;;;;;;;;;;;;;;;;;5085394;28;20381;-65
2022/01/18 16:55:10;;;;;;;;;;;;;;;;;;5085192;28;19986;-66
2022/01/18 16:57:36;;;;;;;;;;;;;;;;;;5082259;28;19928;-66
2022/01/18 17:00:02;;;;;;;;;;;;;;;;;;5083841;28;19943;-66
2022/01/18 17:02:28;;;;;;;;;;;;;;;;;;5085072;28;19928;-66
2022/01/18 17:04:54;;;;;;;;;;;;;;;;;;5084758;28;19924;-66
2022/01/18 17:07:20;;;;;;;;;;;;;;;;;;5083062;28;20313;-67
2022/01/18 17:09:47;;;;;;;;;;;;;;;;;;5084368;28;20416;-66
2022/01/18 17:12:13;;;;;;;;;;;;;;;;;;5084094;28;20004;-66
2022/01/18 17:14:39;;;;;;;;;;;;;;;;;;5083315;28;19932;-66
2022/01/18 17:17:05;;;;;;;;;;;;;;;;;;5087078;28;19981;-66
2022/01/18 17:19:31;;;;;;;;;;;;;;;;;;5083822;28;19963;-67
2022/01/18 17:21:57;;;;;;;;;;;;;;;;;;5083909;28;19931;-66
2022/01/18 17:24:23;;;;;;;;;;;;;;;;;;5081384;28;19932;-66
2022/01/18 17:26:50;;;;;;;;;;;;;;;;;;5084626;28;19970;-65
2022/01/18 17:29:16;;;;;;;;;;;;;;;;;;5083638;28;19927;-65
2022/01/18 17:31:42;;;;;;;;;;;;;;;;;;5082902;28;20465;-65
2022/01/18 17:34:08;;;;;;;;;;;;;;;;;;5084126;28;19943;-65
2022/01/18 17:36:36;;;;;;;;;;;;;;;;;;5080839;28;19932;-65
2022/01/18 17:39:02;;;;;;;;;;;;;;;;;;5084298;28;20291;-65
2022/01/18 17:41:31;;;;;;;;;;;;;;;;;;5082751;28;19931;-65
2022/01/18 17:43:57;;;;;;;;;;;;;;;;;;5083717;28;19935;-65
2022/01/18 17:46:23;;;;;;;;;;;;;;;;;;5081569;28;19932;-65
2022/01/18 17:48:49;;;;;;;;;;;;;;;;;;5083600;28;19985;-66
2022/01/18 17:51:16;;;;;;;;;;;;;;;;;;5083463;28;19944;-65
2022/01/18 17:53:42;;;;;;;;;;;;;;;;;;5081332;28;20016;-64
2022/01/18 17:56:08;;;;;;;;;;;;;;;;;;5080402;28;20373;-65
2022/01/18 17:58:34;;;;;;;;;;;;;;;;;;5083409;28;20428;-65
2022/01/18 18:01:00;;;;;;;;;;;;;;;;;;5081209;28;19928;-66
2022/01/18 18:03:26;;;;;;;;;;;;;;;;;;5084973;28;19928;-66
2022/01/18 18:05:52;;;;;;;;;;;;;;;;;;5081921;28;19986;-67
2022/01/18 18:08:18;;;;;;;;;;;;;;;;;;5083650;28;19928;-66
2022/01/18 18:10:44;;;;;;;;;;;;;;;;;;5079718;28;20011;-66
2022/01/18 18:13:10;;;;;;;;;;;;;;;;;;5082619;28;19928;-66
2022/01/18 18:15:36;;;;;;;;;;;;;;;;;;5082664;28;19997;-63
2022/01/18 18:18:02;;;;;;;;;;;;;;;;;;5083411;28;20339;-64
2022/01/18 18:20:28;;;;;;;;;;;;;;;;;;5083986;28;19934;-67
2022/01/18 18:22:54;;;;;;;;;;;;;;;;;;5083466;28;19942;-64
2022/01/18 18:25:20;;;;;;;;;;;;;;;;;;5082802;28;20437;-64
2022/01/18 18:27:46;;;;;;;;;;;;;;;;;;5081111;28;19920;-64
2022/01/18 18:30:12;;;;;;;;;;;;;;;;;;5082225;28;19928;-64
2022/01/18 18:32:38;;;;;;;;;;;;;;;;;;5084170;28;19932;-65
2022/01/18 18:35:04;;;;;;;;;;;;;;;;;;5081405;28;19924;-65
2022/01/18 18:37:32;;;;;;;;;;;;;;;;;;5082747;28;19931;-64
2022/01/18 18:40:09;;;;;;;;;;;;;;;;;;5081923;28;19928;-64
2022/01/18 18:45:17;;;;;;;;;;;;;;;;;;5080718;28;19924;-64
2022/01/18 18:47:43;;;;;;;;;;;;;;;;;;5083358;28;19928;-64
2022/01/18 18:50:09;;;;;;;;;;;;;;;;;;5082550;28;19920;-64
2022/01/18 18:52:35;;;;;;;;;;;;;;;;;;5083742;28;20305;-64
2022/01/18 18:55:01;;;;;;;;;;;;;;;;;;5083537;28;20406;-63
2022/01/18 18:57:40;;;;;;;;;;;;;;;;;;5083710;28;19934;-64
2022/01/18 19:00:18;;;;;;;;;;;;;;;;;;5082936;28;20026;-64
2022/01/18 19:03:05;;;;;;;;;;;;;;;;;;5083128;28;19924;-64
2022/01/18 19:05:31;;;;;;;;;;;;;;;;;;5083397;28;20002;-64
2022/01/18 19:07:57;;;;;;;;;;;;;;;;;;5083686;28;19928;-64
2022/01/18 19:10:25;;;;;;;;;;;;;;;;;;5083378;28;19920;-64
2022/01/18 19:12:51;;;;;;;;;;;;;;;;;;5084223;28;19939;-64
2022/01/18 19:15:18;;;;;;;;;;;;;;;;;;5082383;28;20024;-64
2022/01/18 19:17:44;;;;;;;;;;;;;;;;;;5081864;28;19939;-64
2022/01/18 19:20:10;;;;;;;;;;;;;;;;;;5083562;28;19924;-64
2022/01/18 19:22:36;;;;;;;;;;;;;;;;;;5086123;28;19928;-64
2022/01/18 19:25:02;;;;;;;;;;;;;;;;;;5087277;28;19935;-64
2022/01/18 19:27:28;;;;;;;;;;;;;;;;;;5085996;28;20305;-65
2022/01/18 19:29:54;;;;;;;;;;;;;;;;;;5086478;28;19953;-64
2022/01/18 19:32:20;;;;;;;;;;;;;;;;;;5087103;28;19928;-65
2022/01/18 19:34:46;;;;;;;;;;;;;;;;;;5086734;28;20030;-64
2022/01/18 19:37:12;;;;;;;;;;;;;;;;;;5086891;28;19928;-65
2022/01/18 19:39:38;;;;;;;;;;;;;;;;;;5086186;28;19928;-65
2022/01/18 19:42:12;;;;;;;;;;;;;;;;;;5086988;28;20444;-65
2022/01/18 19:44:38;;;;;;;;;;;;;;;;;;5091084;28;20383;-65
2022/01/18 19:47:04;;;;;;;;;;;;;;;;;;5085681;28;19928;-65
2022/01/18 19:49:30;;;;;;;;;;;;;;;;;;5086324;28;19931;-65
2022/01/18 19:51:57;;;;;;;;;;;;;;;;;;5087015;28;19928;-64
2022/01/18 19:54:23;;;;;;;;;;;;;;;;;;5086714;28;20003;-64
2022/01/18 19:56:49;;;;;;;;;;;;;;;;;;5067326;28;20474;-64
2022/01/18 19:59:15;;;;;;;;;;;;;;;;;;5065495;28;19929;-64
2022/01/18 20:01:41;;;;;;;;;;;;;;;;;;5066114;28;19935;-65
2022/01/18 20:04:08;;;;;;;;;;;;;;;;;;5064439;28;19951;-64
2022/01/18 20:06:34;;;;;;;;;;;;;;;;;;5065700;28;20396;-65
2022/01/18 20:09:02;;;;;;;;;;;;;;;;;;5065633;28;20420;-65
2022/01/18 20:11:28;;;;;;;;;;;;;;;;;;5065779;28;19935;-64
2022/01/18 20:13:54;;;;;;;;;;;;;;;;;;5080509;28;19924;-64
2022/01/18 20:16:20;;;;;;;;;;;;;;;;;;5085775;28;20270;-65
2022/01/18 20:18:49;;;;;;;;;;;;;;;;;;5085136;28;19970;-65
2022/01/18 20:21:15;;;;;;;;;;;;;;;;;;5086160;28;19938;-65
2022/01/18 20:23:47;;;;;;;;;;;;;;;;;;5085638;28;19950;-65
2022/01/18 20:26:17;;;;;;;;;;;;;;;;;;5085693;28;19928;-65
2022/01/18 20:28:43;;;;;;;;;;;;;;;;;;5085571;28;19950;-64
2022/01/18 20:31:09;;;;;;;;;;;;;;;;;;5084733;28;19928;-65
2022/01/18 20:33:35;;;;;;;;;;;;;;;;;;5083928;28;19924;-65
2022/01/18 20:36:01;;;;;;;;;;;;;;;;;;5085774;28;19928;-64
2022/01/18 20:38:27;;;;;;;;;;;;;;;;;;5085796;28;20676;-65
2022/01/18 20:40:58;;;;;;;;;;;;;;;;;;5086025;28;20478;-64
2022/01/18 20:43:35;;;;;;;;;;;;;;;;;;5084770;28;19928;-65
2022/01/18 20:46:01;;;;;;;;;;;;;;;;;;5084970;28;19978;-64
2022/01/18 20:48:27;;;;;;;;;;;;;;;;;;5085583;28;19960;-64
2022/01/18 20:50:53;;;;;;;;;;;;;;;;;;5085420;28;20389;-64
2022/01/18 20:53:19;;;;;;;;;;;;;;;;;;5085608;28;19928;-65
2022/01/18 20:55:45;;;;;;;;;;;;;;;;;;5084682;28;20630;-65
2022/01/18 20:58:11;;;;;;;;;;;;;;;;;;5085331;28;19924;-65
2022/01/18 21:00:37;;;;;;;;;;;;;;;;;;5083903;28;19971;-65
2022/01/18 21:03:03;;;;;;;;;;;;;;;;;;5085130;28;20015;-65
2022/01/18 21:05:29;;;;;;;;;;;;;;;;;;5087936;28;20303;-66
2022/01/18 21:07:55;;;;;;;;;;;;;;;;;;5090854;28;19924;-65